Time;durP1;ratioP1;P1;durP2;ratioP2;P2;SDS_P1;SDS_P2;PMS_P1;PMS_P2;Temp;Humidity;BMP_temperature;BMP_pressure;BME280_temperature;BME280_humidity;BME280_pressure;Samples;Min_cycle;Max_cycle;Signal;HPM_P1;HPM_P2
2022/11/18 05:49:01;;;;;;;;;2.25;1.25;;;;;10.50;70.49;100067.72;2977882;22;44809;-84
2022/11/18 05:50:12;;;;;;;;;2.25;2.25;;;;;10.51;70.41;100079.97;3054035;22;46683;-83
2022/11/18 05:51:22;;;;;;;;;2.75;1.00;;;;;10.51;70.45;100074.72;3042791;22;45175;-84
2022/11/18 05:52:33;;;;;;;;;1.00;1.00;;;;;10.51;70.21;100085.25;3047048;22;48054;-84
2022/11/18 05:53:43;;;;;;;;;5.00;2.00;;;;;10.52;70.41;100071.16;3058780;22;45289;-83
2022/11/18 05:54:53;;;;;;;;;2.00;1.00;;;;;10.53;70.04;100080.78;3059309;22;46119;-84
2022/11/18 05:56:11;;;;;;;;;1.50;1.50;;;;;10.53;70.26;100080.78;3059487;22;45160;-84
2022/11/18 05:57:22;;;;;;;;;1.00;1.00;;;;;10.51;70.49;100076.50;3059253;22;46329;-84
2022/11/18 05:58:32;;;;;;;;;0.00;0.00;;;;;10.50;70.00;100080.84;3042826;22;45400;-83
2022/11/18 05:59:42;;;;;;;;;1.00;1.00;;;;;10.50;70.23;100086.13;3042818;22;48140;-83
2022/11/18 06:00:55;;;;;;;;;2.00;1.50;;;;;10.50;69.88;100083.50;3047767;22;44534;-83
2022/11/18 06:02:13;;;;;;;;;2.50;1.50;;;;;10.50;70.07;100082.63;3058294;22;45316;-84
2022/11/18 06:03:26;;;;;;;;;2.00;1.50;;;;;10.50;70.00;100096.63;3042466;22;45285;-83
2022/11/18 06:04:41;;;;;;;;;1.00;0.75;;;;;10.50;70.03;100094.00;3047656;22;45310;-83
2022/11/18 06:05:54;;;;;;;;;1.00;1.00;;;;;10.50;69.98;100088.75;3041716;22;45200;-83
2022/11/18 06:07:15;;;;;;;;;3.50;1.00;;;;;10.48;70.14;100093.22;3046851;22;46731;-83
2022/11/18 06:08:33;;;;;;;;;2.25;1.50;;;;;10.47;70.02;100096.75;3056427;22;45763;-83
2022/11/18 06:09:48;;;;;;;;;1.50;1.50;;;;;10.47;70.04;100091.50;3041075;22;47202;-83
2022/11/18 06:10:59;;;;;;;;;1.25;1.00;;;;;10.46;69.84;100102.94;3041964;22;45407;-83
2022/11/18 06:12:16;;;;;;;;;5.50;1.00;;;;;10.45;70.06;100101.22;3045990;22;47249;-84
2022/11/18 06:13:35;;;;;;;;;2.25;1.25;;;;;10.44;70.07;100103.03;3042043;22;45243;-84
2022/11/18 06:15:01;;;;;;;;;2.75;1.25;;;;;10.45;70.30;100109.09;3032781;22;47650;-84
2022/11/18 06:16:12;;;;;;;;;1.00;1.00;;;;;10.43;70.31;100108.31;3034467;22;45307;-84
2022/11/18 06:17:38;;;;;;;;;4.75;1.00;;;;;10.43;70.26;100113.56;3046732;22;46217;-84
2022/11/18 06:18:48;;;;;;;;;2.00;2.00;;;;;10.41;70.06;100115.41;3058730;22;45282;-83
2022/11/18 06:19:58;;;;;;;;;4.00;2.00;;;;;10.40;70.20;100117.19;3057612;22;45518;-83
2022/11/18 06:21:09;;;;;;;;;2.75;2.00;;;;;10.38;70.11;100108.53;3041127;22;45247;-83
2022/11/18 06:22:20;;;;;;;;;2.25;2.00;;;;;10.37;70.03;100119.94;3046523;22;46418;-83
2022/11/18 06:23:34;;;;;;;;;3.50;2.00;;;;;10.38;70.18;100124.28;3058098;22;45191;-83
2022/11/18 06:24:45;;;;;;;;;3.50;1.75;;;;;10.36;70.27;100123.50;3041278;22;46617;-83
2022/11/18 06:25:55;;;;;;;;;2.25;2.25;;;;;10.35;70.28;100119.16;3031710;22;45192;-84
2022/11/18 06:27:05;;;;;;;;;3.00;2.50;;;;;10.37;70.06;100137.50;3047586;22;45472;-83
2022/11/18 06:28:17;;;;;;;;;3.00;2.00;;;;;10.36;69.92;100134.00;3059349;22;45194;-83
2022/11/18 06:29:29;;;;;;;;;1.50;1.00;;;;;10.34;70.06;100134.09;3041821;22;47101;-83
2022/11/18 06:30:39;;;;;;;;;2.00;2.00;;;;;10.33;69.67;100132.34;3047981;22;45200;-83
2022/11/18 06:31:49;;;;;;;;;4.50;2.00;;;;;10.33;70.03;100134.13;3058810;22;45416;-84
2022/11/18 06:33:00;;;;;;;;;1.25;1.25;;;;;10.33;70.11;100145.50;3042411;22;45250;-83
2022/11/18 06:34:10;;;;;;;;;2.00;2.00;;;;;10.33;69.99;100147.25;3046880;22;45292;-83
2022/11/18 06:35:21;;;;;;;;;0.00;0.00;;;;;10.32;70.04;100149.03;3042586;22;45234;-83
2022/11/18 06:36:31;;;;;;;;;1.50;1.50;;;;;10.32;69.76;100145.56;3031779;22;46812;-83
2022/11/18 06:37:42;;;;;;;;;1.75;1.50;;;;;10.31;70.00;100152.59;3047410;22;45184;-83
2022/11/18 06:38:52;;;;;;;;;5.00;2.00;;;;;10.31;70.09;100147.34;3042549;22;47877;-83
2022/11/18 06:40:02;;;;;;;;;3.50;3.00;;;;;10.29;70.04;100149.19;3047222;22;45262;-83
2022/11/18 06:41:13;;;;;;;;;1.00;1.00;;;;;10.30;70.24;100155.25;3058783;22;45261;-83
2022/11/18 06:43:52;;;;;;;;;3.00;1.50;;;;;10.29;69.78;100153.56;3058933;22;45218;-83
2022/11/18 06:45:03;;;;;;;;;4.00;2.00;;;;;10.27;70.47;100153.63;3042779;22;45156;-83
2022/11/18 06:47:45;;;;;;;;;1.75;1.50;;;;;10.27;70.28;100158.91;3058783;22;45320;-83
2022/11/18 06:48:56;;;;;;;;;2.50;2.50;;;;;10.26;70.49;100161.56;3058331;22;46189;-83
2022/11/18 06:50:06;;;;;;;;;2.75;2.75;;;;;10.27;70.42;100160.66;3058706;22;45250;-83
2022/11/18 06:51:17;;;;;;;;;2.50;2.50;;;;;10.25;69.85;100163.31;3058859;22;45652;-83
2022/11/18 06:52:27;;;;;;;;;5.00;3.00;;;;;10.25;70.40;100168.59;3042621;22;45289;-83
2022/11/18 06:53:38;;;;;;;;;2.75;2.00;;;;;10.25;70.36;100171.22;3047109;22;46547;-83
2022/11/18 06:54:48;;;;;;;;;1.75;1.25;;;;;10.22;70.43;100172.19;3059133;22;45274;-83
2022/11/18 06:56:11;;;;;;;;;3.00;3.00;;;;;10.23;70.42;100166.03;3059076;22;46105;-83
2022/11/18 06:57:21;;;;;;;;;3.25;2.25;;;;;10.24;70.72;100173.00;3042427;22;45187;-83
2022/11/18 06:58:32;;;;;;;;;3.00;1.25;;;;;10.24;70.50;100175.63;3047273;22;45231;-84
2022/11/18 06:59:42;;;;;;;;;2.75;2.00;;;;;10.24;70.50;100173.00;3042787;22;45299;-83
2022/11/18 07:00:52;;;;;;;;;8.50;3.50;;;;;10.24;70.47;100169.53;3042402;22;47072;-84
2022/11/18 07:02:03;;;;;;;;;5.75;2.00;;;;;10.26;70.37;100174.69;3031830;22;44612;-83
2022/11/18 07:03:13;;;;;;;;;2.25;2.25;;;;;10.25;70.31;100173.84;3047226;22;45393;-83
2022/11/18 07:04:23;;;;;;;;;2.00;2.00;;;;;10.22;70.29;100177.44;3042050;22;45215;-83
2022/11/18 07:05:34;;;;;;;;;3.00;3.00;;;;;10.23;70.31;100180.94;3047385;22;45541;-83
2022/11/18 07:06:44;;;;;;;;;4.50;1.00;;;;;10.24;70.40;100182.66;3059091;22;45132;-83
2022/11/18 07:07:54;;;;;;;;;4.75;2.25;;;;;10.23;69.96;100183.56;3042406;22;46931;-83
2022/11/18 07:09:06;;;;;;;;;8.25;4.00;;;;;10.22;70.44;100185.31;3047574;22;45291;-83
2022/11/18 07:10:16;;;;;;;;;2.00;2.00;;;;;10.22;70.52;100189.75;3058855;22;45441;-83
2022/11/18 07:11:27;;;;;;;;;3.00;3.00;;;;;10.22;70.27;100190.56;3059166;22;45264;-83
2022/11/18 07:12:37;;;;;;;;;3.00;3.00;;;;;10.22;70.77;100197.63;3058862;22;46604;-83
2022/11/18 07:13:48;;;;;;;;;3.00;3.00;;;;;10.21;70.51;100196.75;3058220;22;44855;-83
2022/11/18 07:14:58;;;;;;;;;2.50;2.50;;;;;10.20;70.47;100200.28;3058975;22;45616;-84
2022/11/18 07:16:11;;;;;;;;;1.25;1.25;;;;;10.22;70.49;100208.97;3059815;22;45314;-84
2022/11/18 07:17:21;;;;;;;;;5.50;3.00;;;;;10.22;70.53;100208.13;3059389;22;45327;-83
2022/11/18 07:18:33;;;;;;;;;5.75;3.00;;;;;10.23;70.17;100213.31;3059864;22;44546;-83
2022/11/18 07:19:43;;;;;;;;;3.25;3.00;;;;;10.22;70.25;100213.38;3058752;22;45630;-84
2022/11/18 07:20:54;;;;;;;;;3.50;2.00;;;;;10.23;70.41;100222.94;3058177;22;45125;-84
2022/11/18 07:22:04;;;;;;;;;3.00;2.00;;;;;10.22;70.38;100221.25;3059271;22;46276;-82
2022/11/18 07:23:15;;;;;;;;;3.00;3.00;;;;;10.23;70.64;100217.69;3059525;22;44687;-82
2022/11/18 07:24:25;;;;;;;;;2.00;2.00;;;;;10.24;70.51;100222.06;3042758;22;47086;-82
2022/11/18 07:25:35;;;;;;;;;5.50;4.50;;;;;10.23;70.73;100212.44;3048134;22;45319;-82
2022/11/18 07:26:46;;;;;;;;;3.25;3.25;;;;;10.24;70.49;100216.78;3058944;22;46569;-82
2022/11/18 07:27:57;;;;;;;;;3.00;3.00;;;;;10.24;70.40;100224.66;3058431;22;45290;-82
2022/11/18 07:29:08;;;;;;;;;4.00;4.00;;;;;10.24;70.29;100225.53;3043049;22;46844;-82
2022/11/18 07:30:18;;;;;;;;;4.50;2.75;;;;;10.26;70.17;100219.34;3031973;22;45151;-82
2022/11/18 07:31:29;;;;;;;;;6.00;3.00;;;;;10.24;70.48;100224.66;3047871;22;45392;-82
2022/11/18 07:32:39;;;;;;;;;3.75;3.00;;;;;10.25;70.51;100234.25;3042683;22;45069;-82
2022/11/18 07:33:53;;;;;;;;;3.50;3.25;;;;;10.27;70.63;100234.19;3042901;22;46903;-82
2022/11/18 07:35:04;;;;;;;;;5.25;2.50;;;;;10.26;70.49;100237.72;3032994;22;45180;-82
2022/11/18 07:36:17;;;;;;;;;3.00;3.00;;;;;10.25;70.21;100231.63;3047178;22;46095;-82
2022/11/18 07:37:27;;;;;;;;;4.00;2.00;;;;;10.24;70.51;100229.94;3043193;22;45301;-82
2022/11/18 07:38:38;;;;;;;;;4.50;3.00;;;;;10.24;70.47;100224.66;3048202;22;45198;-82
2022/11/18 07:39:49;;;;;;;;;4.00;3.00;;;;;10.24;70.96;100232.56;3059829;22;45227;-82
2022/11/18 07:41:04;;;;;;;;;2.00;2.00;;;;;10.26;70.38;100233.34;3059371;22;49139;-82
2022/11/18 07:42:15;;;;;;;;;4.00;3.00;;;;;10.27;69.94;100235.06;3059692;22;45203;-83
2022/11/18 07:43:25;;;;;;;;;1.00;1.00;;;;;10.26;70.29;100235.97;3059220;22;45214;-82
2022/11/18 07:44:35;;;;;;;;;3.00;2.50;;;;;10.25;70.28;100247.38;3043072;22;45164;-82
2022/11/18 07:45:45;;;;;;;;;4.00;2.75;;;;;10.24;70.38;100237.81;3043021;22;48092;-82
2022/11/18 07:46:56;;;;;;;;;3.00;3.00;;;;;10.26;70.10;100233.34;3048405;22;45267;-82
2022/11/18 07:48:06;;;;;;;;;3.25;3.25;;;;;10.27;70.58;100237.69;3042463;22;47824;-81
2022/11/18 07:49:16;;;;;;;;;6.25;3.00;;;;;10.29;70.31;100237.63;3047751;22;45176;-82
2022/11/18 07:50:27;;;;;;;;;2.75;2.00;;;;;10.28;70.57;100242.00;3059330;22;45276;-82
2022/11/18 07:51:38;;;;;;;;;3.00;3.00;;;;;10.30;70.29;100239.31;3059804;22;45345;-82
2022/11/18 07:52:49;;;;;;;;;4.50;2.00;;;;;10.29;70.15;100241.09;3059537;22;45380;-82
2022/11/18 07:54:00;;;;;;;;;4.00;3.00;;;;;10.29;70.21;100237.63;3043326;22;45236;-83
2022/11/18 07:55:10;;;;;;;;;6.25;5.00;;;;;10.30;70.08;100245.44;3047762;22;45322;-82
2022/11/18 07:56:21;;;;;;;;;5.00;5.00;;;;;10.29;70.04;100243.75;3059408;22;45163;-82
2022/11/18 07:57:31;;;;;;;;;6.75;5.00;;;;;10.30;70.13;100247.19;3059115;22;45336;-83
2022/11/18 07:58:43;;;;;;;;;6.50;2.50;;;;;10.31;70.09;100251.53;3042895;22;44522;-83
2022/11/18 07:59:53;;;;;;;;;3.00;3.00;;;;;10.30;70.26;100244.56;3043200;22;47195;-83
2022/11/18 08:01:12;;;;;;;;;4.50;3.75;;;;;10.31;70.05;100248.91;3032010;22;45179;-83
2022/11/18 08:02:22;;;;;;;;;2.75;2.75;;;;;10.32;70.08;100248.00;3049683;22;45274;-83
2022/11/18 08:03:33;;;;;;;;;5.00;3.00;;;;;10.30;70.48;100253.31;3042721;22;44634;-83
2022/11/18 08:04:43;;;;;;;;;2.50;2.00;;;;;10.33;70.47;100258.44;3047385;22;46124;-82
2022/11/18 08:06:01;;;;;;;;;3.00;2.00;;;;;10.33;70.16;100253.19;3042704;22;45223;-82
2022/11/18 08:07:11;;;;;;;;;2.50;2.50;;;;;10.34;70.08;100262.81;3049078;22;45323;-82
2022/11/18 08:08:21;;;;;;;;;2.00;2.00;;;;;10.34;70.16;100262.81;3059759;22;45142;-83
2022/11/18 08:09:32;;;;;;;;;4.25;1.75;;;;;10.33;69.88;100268.97;3057153;22;48103;-83
2022/11/18 08:10:42;;;;;;;;;2.25;2.25;;;;;10.33;70.13;100263.69;3043311;22;45235;-81
2022/11/18 08:11:52;;;;;;;;;3.00;2.50;;;;;10.33;69.85;100266.34;3047186;22;48022;-81
2022/11/18 08:13:03;;;;;;;;;2.75;2.50;;;;;10.32;70.22;100264.59;3059195;22;45227;-81
2022/11/18 08:14:13;;;;;;;;;3.00;1.75;;;;;10.33;70.21;100257.59;3059349;22;46190;-81
2022/11/18 08:15:24;;;;;;;;;4.00;3.25;;;;;10.33;70.08;100268.09;3059793;22;45158;-81
2022/11/18 08:16:34;;;;;;;;;3.25;3.25;;;;;10.36;70.22;100275.88;3058999;22;45266;-81
2022/11/18 08:17:45;;;;;;;;;3.00;3.00;;;;;10.37;70.03;100276.72;3042490;22;45266;-81
2022/11/18 08:18:58;;;;;;;;;4.00;2.25;;;;;10.39;70.30;100280.16;3047528;22;46472;-81
2022/11/18 08:20:09;;;;;;;;;5.50;4.00;;;;;10.40;70.01;100276.56;3058505;22;45200;-81
2022/11/18 08:21:21;;;;;;;;;6.00;3.00;;;;;10.40;69.95;100274.81;3058672;22;45375;-82
2022/11/18 08:22:31;;;;;;;;;3.25;3.00;;;;;10.41;69.77;100270.41;3058618;22;44549;-82
2022/11/18 08:23:42;;;;;;;;;7.00;3.25;;;;;10.41;70.44;100283.56;3042774;22;46769;-81
2022/11/18 08:24:52;;;;;;;;;5.00;2.75;;;;;10.43;70.27;100286.97;3047406;22;45181;-81
2022/11/18 08:26:07;;;;;;;;;3.25;3.25;;;;;10.45;70.22;100282.50;3042809;22;48109;-81
2022/11/18 08:27:18;;;;;;;;;5.75;4.25;;;;;10.46;70.10;100278.97;3048380;22;45265;-81
2022/11/18 08:28:28;;;;;;;;;2.75;2.75;;;;;10.47;70.41;100278.03;3058006;22;46444;-81
2022/11/18 08:29:38;;;;;;;;;3.00;3.00;;;;;10.51;70.03;100290.19;3043265;22;44675;-81
2022/11/18 08:30:48;;;;;;;;;3.00;2.75;;;;;10.51;70.13;100290.19;3047766;22;45289;-81
2022/11/18 08:31:59;;;;;;;;;3.75;3.00;;;;;10.54;69.92;100297.94;3058774;22;44885;-81
2022/11/18 08:33:09;;;;;;;;;6.00;4.00;;;;;10.54;69.88;100297.94;3059097;22;45313;-82
2022/11/18 08:34:20;;;;;;;;;3.25;3.00;;;;;10.57;70.13;100295.19;3042443;22;45223;-80
2022/11/18 08:35:31;;;;;;;;;5.00;2.00;;;;;10.60;69.98;100294.22;3047760;22;46482;-81
2022/11/18 08:36:42;;;;;;;;;4.00;2.00;;;;;10.61;69.85;100298.56;3059777;22;44580;-81
2022/11/18 08:37:52;;;;;;;;;6.75;2.00;;;;;10.65;70.22;100302.78;3059510;22;45191;-81
2022/11/18 08:39:06;;;;;;;;;6.25;4.00;;;;;10.67;70.09;100306.19;3059683;22;45204;-81
2022/11/18 08:40:16;;;;;;;;;4.00;3.00;;;;;10.68;69.53;100304.44;3042333;22;48155;-81
2022/11/18 08:41:30;;;;;;;;;2.50;2.00;;;;;10.69;69.95;100306.97;3047929;22;45199;-82
2022/11/18 08:42:41;;;;;;;;;2.25;1.50;;;;;10.71;70.33;100304.31;3058873;22;45444;-81
2022/11/18 08:43:51;;;;;;;;;3.25;1.25;;;;;10.72;69.82;100292.84;3043325;22;44576;-81
2022/11/18 08:45:03;;;;;;;;;3.25;3.25;;;;;10.76;70.06;100299.72;3047773;22;45276;-81
2022/11/18 08:46:13;;;;;;;;;3.25;2.00;;;;;10.78;69.86;100297.88;3059362;22;45216;-81
2022/11/18 08:47:23;;;;;;;;;2.00;2.00;;;;;10.79;70.31;100299.56;3041201;22;48531;-82
2022/11/18 08:48:33;;;;;;;;;3.25;1.75;;;;;10.82;70.19;100303.00;3047934;22;45159;-81
2022/11/18 08:49:44;;;;;;;;;3.50;2.00;;;;;10.84;69.86;100307.28;3057851;22;46275;-81
2022/11/18 08:50:57;;;;;;;;;2.50;2.50;;;;;10.87;69.64;100306.28;3059768;22;45076;-81
2022/11/18 08:52:08;;;;;;;;;3.50;3.00;;;;;10.88;69.52;100302.75;3059142;22;46642;-81
2022/11/18 08:53:18;;;;;;;;;6.00;2.75;;;;;10.89;69.63;100296.59;3043078;22;44629;-81
2022/11/18 08:54:30;;;;;;;;;3.75;2.75;;;;;10.92;69.43;100304.31;3047275;22;45325;-81
2022/11/18 08:55:40;;;;;;;;;4.00;2.50;;;;;10.94;69.56;100302.50;3059548;22;45178;-81
2022/11/18 08:56:51;;;;;;;;;5.00;2.00;;;;;10.96;69.53;100305.06;3058831;22;45281;-81
2022/11/18 08:58:01;;;;;;;;;2.25;1.25;;;;;10.97;69.66;100307.63;3058198;22;45218;-81
2022/11/18 08:59:12;;;;;;;;;3.00;2.00;;;;;10.96;69.06;100299.81;3058175;22;45140;-81
2022/11/18 09:00:22;;;;;;;;;6.50;3.25;;;;;10.97;69.38;100307.63;3059523;22;44577;-81
2022/11/18 09:01:33;;;;;;;;;4.00;3.00;;;;;10.98;69.37;100306.72;3059294;22;46346;-81
2022/11/18 09:02:43;;;;;;;;;4.25;4.00;;;;;10.98;69.29;100303.22;3042538;22;45251;-81
2022/11/18 09:03:53;;;;;;;;;2.75;2.75;;;;;11.01;69.47;100309.19;3046747;22;47055;-81
2022/11/18 09:05:04;;;;;;;;;5.00;2.00;;;;;11.01;69.26;100301.31;3041967;22;45215;-81
2022/11/18 09:06:17;;;;;;;;;2.50;2.50;;;;;11.03;69.57;100302.13;3047301;22;45411;-81
2022/11/18 09:07:28;;;;;;;;;3.00;3.00;;;;;11.08;69.43;100308.97;3059440;22;44620;-82
2022/11/18 09:08:38;;;;;;;;;4.75;3.00;;;;;11.11;68.79;100308.84;3058104;22;47018;-81
2022/11/18 09:09:49;;;;;;;;;2.00;2.00;;;;;11.09;68.80;100308.03;3041847;22;45250;-81
2022/11/18 09:11:10;;;;;;;;;2.00;2.00;;;;;11.10;69.21;100315.00;3047653;22;45945;-81
2022/11/18 09:12:20;;;;;;;;;4.50;2.00;;;;;11.11;69.10;100314.94;3043021;22;44562;-81
2022/11/18 09:13:30;;;;;;;;;2.00;2.00;;;;;11.11;69.23;100316.72;3047823;22;45432;-81
2022/11/18 09:14:42;;;;;;;;;3.00;2.00;;;;;11.14;69.16;100321.84;3043058;22;45168;-82
2022/11/18 09:15:52;;;;;;;;;4.75;2.50;;;;;11.14;69.26;100309.53;3047919;22;45436;-81
2022/11/18 09:17:02;;;;;;;;;2.00;2.00;;;;;11.15;69.15;100315.66;3058230;22;45143;-81
2022/11/18 09:18:13;;;;;;;;;4.25;1.25;;;;;11.18;68.99;100317.31;3042879;22;47152;-81
2022/11/18 09:19:23;;;;;;;;;1.25;1.25;;;;;11.19;69.17;100313.75;3047559;22;45124;-81
2022/11/18 09:20:33;;;;;;;;;4.25;2.75;;;;;11.20;69.09;100321.59;3059229;22;45195;-81
2022/11/18 09:21:44;;;;;;;;;2.50;2.25;;;;;11.21;68.83;100317.19;3057769;22;45227;-81
2022/11/18 09:22:54;;;;;;;;;4.75;2.00;;;;;11.22;68.96;100313.63;3042756;22;51529;-81
2022/11/18 09:24:05;;;;;;;;;4.75;2.75;;;;;11.24;68.97;100320.53;3047115;22;45251;-81
2022/11/18 09:25:15;;;;;;;;;1.75;1.50;;;;;11.27;68.91;100327.44;3058714;22;46339;-81
2022/11/18 09:26:26;;;;;;;;;4.00;3.00;;;;;11.29;69.24;100322.09;3042871;22;44628;-81
2022/11/18 09:27:36;;;;;;;;;3.25;2.75;;;;;11.32;69.21;100324.63;3031828;22;47216;-81
2022/11/18 09:28:47;;;;;;;;;2.00;2.00;;;;;11.34;68.78;100325.41;3047951;22;45264;-81
2022/11/18 09:29:57;;;;;;;;;5.00;2.00;;;;;11.35;69.01;100327.97;3042659;22;48142;-81
2022/11/18 09:31:11;;;;;;;;;0.00;0.00;;;;;11.35;68.80;100335.88;3048041;22;45195;-81
2022/11/18 09:32:21;;;;;;;;;2.00;2.00;;;;;11.38;68.73;100342.78;3042684;22;48171;-82
2022/11/18 09:33:31;;;;;;;;;4.00;3.00;;;;;11.41;68.59;100332.09;3043026;22;44564;-82
2022/11/18 09:34:42;;;;;;;;;2.00;1.00;;;;;11.45;68.92;100340.75;3046793;22;45335;-81
2022/11/18 09:35:52;;;;;;;;;1.50;0.75;;;;;11.48;68.85;100332.72;3043138;22;45142;-81
2022/11/18 09:37:05;;;;;;;;;4.00;1.25;;;;;11.50;69.01;100330.88;3047613;22;45201;-81
2022/11/18 09:38:15;;;;;;;;;1.00;1.00;;;;;11.53;68.67;100333.34;3059323;22;45362;-81
2022/11/18 09:39:25;;;;;;;;;1.00;1.00;;;;;11.57;68.46;100342.84;3059246;22;45344;-81
2022/11/18 09:40:54;;;;;;;;;1.00;1.00;;;;;11.60;68.56;100336.59;3059397;22;45276;-81
2022/11/18 09:42:29;;;;;;;;;1.25;1.25;;;;;11.63;68.12;100341.69;3059148;22;45206;-81
2022/11/18 09:43:58;;;;;;;;;2.75;2.00;;;;;11.64;68.30;100332.88;3042681;22;45259;-81
2022/11/18 09:45:20;;;;;;;;;1.00;1.00;;;;;11.67;67.94;100339.78;3034531;22;47940;-81
2022/11/18 09:46:39;;;;;;;;;3.00;1.75;;;;;11.66;68.12;100331.03;3049414;22;45128;-81
2022/11/18 09:47:50;;;;;;;;;2.50;1.00;;;;;11.66;68.05;100330.19;3058761;22;46486;-82
2022/11/18 09:49:25;;;;;;;;;3.75;2.00;;;;;11.65;67.94;100331.13;3041366;22;45226;-81
2022/11/18 09:50:37;;;;;;;;;2.75;1.00;;;;;11.66;67.65;100332.81;3027170;22;47496;-82
2022/11/18 09:51:49;;;;;;;;;3.00;2.00;;;;;11.69;68.21;100337.94;3032660;22;44707;-82
2022/11/18 09:53:38;;;;;;;;;1.00;1.00;;;;;11.68;68.15;100331.81;3043856;22;46258;-82
2022/11/18 09:54:49;;;;;;;;;4.00;2.75;;;;;11.70;67.80;100329.97;2982031;23;45412;-81
2022/11/18 09:56:01;;;;;;;;;0.75;0.75;;;;;11.69;67.80;100336.19;2983381;23;46350;-81
2022/11/18 09:57:39;;;;;;;;;1.00;1.00;;;;;11.69;67.78;100333.53;3001906;22;45431;-81
2022/11/18 09:58:50;;;;;;;;;2.00;1.00;;;;;11.69;67.81;100337.94;3026360;22;45243;-81
2022/11/18 10:00:00;;;;;;;;;2.25;1.00;;;;;11.70;68.32;100342.31;3042508;22;45170;-80
2022/11/18 10:01:18;;;;;;;;;4.25;1.75;;;;;11.72;67.89;100345.72;3040879;22;46868;-81
2022/11/18 10:02:44;;;;;;;;;3.75;2.00;;;;;11.74;68.02;100343.88;3043658;22;44557;-81
2022/11/18 10:03:54;;;;;;;;;6.00;1.00;;;;;11.79;67.92;100355.06;3043840;22;46363;-81
2022/11/18 10:05:16;;;;;;;;;0.00;0.00;;;;;11.84;67.93;100349.56;3044573;22;45147;-80
2022/11/18 10:06:30;;;;;;;;;3.00;3.00;;;;;11.86;68.02;100360.03;3028217;22;48324;-81
2022/11/18 10:07:51;;;;;;;;;2.00;1.25;;;;;11.88;68.19;100350.28;3018420;22;45272;-82
2022/11/18 10:09:02;;;;;;;;;1.25;1.25;;;;;11.91;68.07;100351.00;3035439;22;45342;-82
2022/11/18 10:10:43;;;;;;;;;1.50;1.00;;;;;11.93;68.27;100346.53;3027810;22;44695;-82
2022/11/18 10:12:07;;;;;;;;;1.25;1.25;;;;;11.97;67.78;100351.66;3034384;22;46525;-82
2022/11/18 10:13:31;;;;;;;;;2.50;2.00;;;;;12.00;67.88;100352.38;3027893;22;45211;-82
2022/11/18 10:14:41;;;;;;;;;6.75;2.00;;;;;12.03;67.88;100361.91;3035385;22;45247;-81
2022/11/18 10:16:24;;;;;;;;;1.75;1.75;;;;;12.04;67.59;100359.22;3044239;22;45121;-81
2022/11/18 10:17:45;;;;;;;;;4.00;1.75;;;;;12.05;67.47;100360.06;3026869;22;47578;-81
2022/11/18 10:18:58;;;;;;;;;3.50;0.50;;;;;12.08;67.44;100359.06;3019822;22;45132;-82
2022/11/18 10:20:54;;;;;;;;;0.50;0.50;;;;;12.10;67.36;100355.44;3032300;22;46728;-84
2022/11/18 10:22:29;;;;;;;;;2.00;2.00;;;;;12.11;67.53;100359.78;2998559;22;45338;-83
2022/11/18 10:24:00;;;;;;;;;2.00;2.00;;;;;12.15;67.45;100363.16;2998277;22;45353;-83
2022/11/18 10:25:14;;;;;;;;;2.00;2.00;;;;;12.17;67.45;100360.47;2983259;23;45171;-82
2022/11/18 10:26:57;;;;;;;;;0.25;0.25;;;;;12.19;67.46;100367.38;2972447;23;47600;-82
2022/11/18 10:28:22;;;;;;;;;1.25;1.25;;;;;12.22;67.41;100364.59;3039805;22;45132;-82
2022/11/18 10:29:32;;;;;;;;;1.50;1.50;;;;;12.23;67.44;100366.31;3044712;22;46214;-82
2022/11/18 10:30:43;;;;;;;;;0.75;0.75;;;;;12.25;67.32;100368.88;3042583;22;47658;-83
2022/11/18 10:32:17;;;;;;;;;2.25;0.50;;;;;12.25;66.42;100369.72;3043927;22;45120;-82
2022/11/18 10:33:28;;;;;;;;;0.25;0.25;;;;;12.28;66.59;100368.72;3043411;22;45302;-82
2022/11/18 10:34:53;;;;;;;;;2.75;0.50;;;;;12.31;67.37;100371.22;3043422;22;46740;-82
2022/11/18 10:36:17;;;;;;;;;0.25;0.25;;;;;12.34;67.21;100362.31;3044826;22;45131;-81
2022/11/18 10:37:32;;;;;;;;;0.25;0.00;;;;;12.40;67.21;100374.34;3044682;22;46417;-81
2022/11/18 10:38:44;;;;;;;;;1.50;0.50;;;;;12.42;67.06;100372.53;3028016;22;45374;-81
2022/11/18 10:40:00;;;;;;;;;2.00;2.00;;;;;12.47;67.16;100367.88;3033141;22;46740;-82
2022/11/18 10:41:16;;;;;;;;;0.50;0.50;;;;;12.52;66.79;100371.13;3044208;22;45152;-82
2022/11/18 10:42:39;;;;;;;;;1.50;1.00;;;;;12.57;66.89;100363.88;3043712;22;46217;-82
2022/11/18 10:43:56;;;;;;;;;1.00;1.00;;;;;12.62;66.96;100366.28;3044392;22;45084;-82
2022/11/18 10:45:14;;;;;;;;;1.00;1.00;;;;;12.66;66.67;100372.28;3043225;22;47299;-82
2022/11/18 10:46:25;;;;;;;;;0.75;0.75;;;;;12.68;66.52;100367.78;3044404;22;45390;-82
2022/11/18 10:47:35;;;;;;;;;2.75;0.25;;;;;12.70;66.30;100369.41;3028167;22;46876;-82
2022/11/18 10:48:46;;;;;;;;;0.00;0.00;;;;;12.71;66.45;100370.28;3032256;22;45164;-82
2022/11/18 10:49:59;;;;;;;;;3.00;1.25;;;;;12.73;66.86;100373.69;3042233;22;46601;-82
2022/11/18 10:51:22;;;;;;;;;3.50;2.00;;;;;12.77;66.66;100369.97;3043180;22;44518;-82
2022/11/18 10:52:51;;;;;;;;;0.75;0.75;;;;;12.82;66.35;100373.25;3028216;22;46966;-82
2022/11/18 10:54:19;;;;;;;;;0.00;0.00;;;;;12.88;66.67;100369.47;3021542;22;45203;-82
2022/11/18 10:55:30;;;;;;;;;0.75;0.00;;;;;12.92;65.94;100367.50;3036847;22;45372;-82
2022/11/18 10:56:51;;;;;;;;;0.50;0.50;;;;;12.97;66.55;100370.78;3043461;22;44590;-82
2022/11/18 10:58:09;;;;;;;;;5.00;1.50;;;;;13.02;66.04;100371.41;3043549;22;45238;-82
2022/11/18 10:59:40;;;;;;;;;5.50;2.00;;;;;13.08;65.71;100370.25;3044717;22;45305;-82
2022/11/18 11:00:50;;;;;;;;;2.50;1.00;;;;;13.15;65.97;100370.81;3044427;22;46214;-82
2022/11/18 11:02:19;;;;;;;;;2.00;2.00;;;;;13.21;65.70;100367.03;3044710;22;44583;-81
2022/11/18 11:03:36;;;;;;;;;1.50;0.75;;;;;13.28;66.24;100363.13;3044532;22;45362;-82
2022/11/18 11:04:49;;;;;;;;;1.50;1.00;;;;;13.34;65.91;100367.22;3043919;22;45357;-82
2022/11/18 11:06:21;;;;;;;;;0.75;0.50;;;;;13.42;65.65;100366.84;3043157;22;46829;-82
2022/11/18 11:07:34;;;;;;;;;2.00;2.00;;;;;13.48;65.47;100370.00;3028344;22;44614;-82
2022/11/18 11:08:56;;;;;;;;;3.25;2.00;;;;;13.54;65.56;100376.78;3017670;22;47866;-82
2022/11/18 11:10:07;;;;;;;;;1.00;1.00;;;;;13.60;65.02;100367.72;3035826;22;45133;-82
2022/11/18 11:11:25;;;;;;;;;7.00;2.00;;;;;13.65;65.14;100371.00;3043184;22;47165;-82
2022/11/18 11:12:48;;;;;;;;;2.50;1.25;;;;;13.71;65.02;100375.94;3028167;22;45331;-82
2022/11/18 11:14:20;;;;;;;;;1.00;1.00;;;;;13.78;65.16;100370.34;3020034;22;46402;-82
2022/11/18 11:15:40;;;;;;;;;2.00;2.00;;;;;13.81;65.23;100367.53;3038032;22;44558;-82
2022/11/18 11:17:13;;;;;;;;;3.75;2.00;;;;;13.86;65.34;100373.41;3042977;22;47187;-82
2022/11/18 11:18:40;;;;;;;;;4.00;1.00;;;;;13.91;64.87;100366.09;3044342;22;45186;-82
2022/11/18 11:20:02;;;;;;;;;2.00;2.00;;;;;13.94;63.11;100380.94;3044488;22;46349;-82
2022/11/18 11:21:19;;;;;;;;;2.00;0.25;;;;;13.95;62.25;100372.94;3044714;22;45117;-83
2022/11/18 11:22:29;;;;;;;;;1.00;1.00;;;;;13.93;63.21;100374.81;3044269;22;46317;-82
2022/11/18 11:23:41;;;;;;;;;0.75;0.25;;;;;13.91;63.19;100376.69;3044516;22;45168;-82
2022/11/18 11:24:52;;;;;;;;;2.00;1.75;;;;;13.91;63.54;100373.19;3028124;22;47318;-82
2022/11/18 11:26:27;;;;;;;;;3.00;2.00;;;;;13.94;63.39;100384.44;3017575;22;45185;-82
2022/11/18 11:28:03;;;;;;;;;0.75;0.25;;;;;13.95;61.24;100377.38;3037745;22;47498;-82
2022/11/18 11:29:43;;;;;;;;;2.00;0.50;;;;;13.95;63.03;100372.09;3044481;22;45132;-82
2022/11/18 11:31:19;;;;;;;;;2.75;1.50;;;;;13.98;63.51;100371.06;3044532;22;46659;-82
2022/11/18 11:32:29;;;;;;;;;2.00;2.00;;;;;14.02;63.48;100378.75;3043306;22;45254;-82
2022/11/18 11:33:54;;;;;;;;;1.00;0.50;;;;;14.04;63.36;100368.97;3043493;22;46173;-82
2022/11/18 11:35:26;;;;;;;;;1.00;1.00;;;;;14.08;63.58;100372.28;3044615;22;45100;-82
2022/11/18 11:37:04;;;;;;;;;5.75;3.25;;;;;14.12;63.14;100376.47;3044423;22;45339;-82
2022/11/18 11:38:34;;;;;;;;;5.00;3.75;;;;;14.22;63.21;100373.31;3044791;22;44522;-82